• Join FlightAware (Why Join?)
  • Login
  • US Flag 
12:38AM EST


 

Airport Tracker/Info


-or-


 

Live Flight TrackerFlight Track Log ✈ QXE2422 ✈ 09-May-2013 ✈ KBOI - KPDX

Flight Track Log - Related Links

Times and Time Zones

All times are in EDT time to prevent confusion due to time zone crossing. See the QXE2422 flight status page for this flight to view local times or setup timezone preferences in your user account.

Time Position Orientation Groundspeed Altitude Reporting Facility
EDT Latitude Longitude Course Direction KTS MPH feet Rate Location/Type
12:26PM 44.5828 -118.8758 296° West 338 389 22,000  Level Seattle Center
12:27PM 44.6347 -119.0156 298° West 338 389 22,000  Level Seattle Center
12:28PM 44.6797 -119.1314 299° West 339 390 22,000  Level Seattle Center
12:29PM 44.7225 -119.2486 297° West 338 389 22,000  Level Seattle Center
12:30PM 44.7667 -119.3650 298° West 339 390 22,000  Level Seattle Center
12:31PM 44.6719 -119.5154 296° West  Level Estimated
12:31PM 44.8100 -119.4822 298° West 339 390 22,000  Level Seattle Center
12:32PM 44.8528 -119.5983 297° West 336 387 22,000  Level Seattle Center
12:33PM 44.8961 -119.7164 297° West 340 391 22,000  Level Seattle Center
12:34PM 44.9389 -119.8336 297° West 339 390 22,000  Level Seattle Center
12:35PM 44.9842 -119.9578 297° West 336 387 22,000  Level Seattle Center
12:36PM 45.0300 -120.0833 297° West 341 392 22,000  Level Seattle Center
12:37PM 45.0725 -120.2017 297° West 341 392 22,000  Level Seattle Center
12:38PM 45.1150 -120.3194 297° West 338 389 22,000  Level Seattle Center
12:39PM 45.1581 -120.4386 297° West 340 391 22,000  Level Seattle Center
12:40PM 45.1994 -120.5556 297° West 337 388 22,000  Level Seattle Center
12:41PM 45.2417 -120.6744 297° West 339 390 22,000  Level Seattle Center
12:42PM 45.2839 -120.7931 297° West 339 390 22,000  Level Seattle Center
12:43PM 45.3258 -120.9122 297° West 338 389 22,000 -540 Level Seattle Center
12:44PM 45.3633 -121.0644 289° West 348 400 21,000 -1,440 Descending Seattle Center
12:45PM 45.3939 -121.2053 287° West 370 426 19,100 -1,860 Descending Seattle Center
12:46PM 45.4256 -121.3461 288° West 376 433 17,300 -1,860 Descending Seattle Center
12:47PM 45.4550 -121.4800 287° West 357 411 15,400 -1,800 Descending Seattle Center
12:47PM 45.4642 -121.5186 289° West 337 388 15,000 -1,620 Descending Seattle Center
12:48PM 45.4794 -121.6119 283° West 351 404 13,800 -1,740 Descending Seattle Center
12:49PM 45.4953 -121.7481 279° West 350 403 12,000 -1,920 Descending Seattle Center
12:50PM 45.5058 -121.8714 277° West 320 368 9,900 -1,920 Descending Seattle Center
12:51PM 45.4983 -121.9967 265° West 281 323 8,100 -1,920 Descending Seattle Center
12:52PM 45.4947 -122.1042 267° West 275 316 6,100 -1,560 Descending Seattle Center
12:53PM 45.4914 -122.2050 267° West 264 304 5,000 -1,140 Descending Seattle Center
12:54PM 45.4842 -122.2914 263° West 233 268 3,900 -1,020 Descending Seattle Center
12:55PM 45.5031 -122.3581 292° West 191 220 3,000 -780 Descending Seattle Center
12:56PM 45.5269 -122.4197 299° West 179 206 2,400 -720 Descending Seattle Center
12:57PM 45.5347 -122.4433 295° West 169 194 2,100 -840 Descending Seattle Center
12:57PM 45.5481 -122.4744 301° West 168 193 1,600 -720 Descending Seattle Center
12:58PM 45.5531 -122.4911 293° West 135 155 1,400 -600 Descending Seattle Center
12:58PM 45.5650 -122.5172 303° West 150 173 1,000 -660 Descending Seattle Center
12:59PM 45.5811 -122.5556 301° West 131 151 300 -720 Descending Seattle Center
01:01PM 45.5833 -122.5833 282° West  Level FlightAware Approximate